createdAt,value
2018-12-06T00:04:47.068Z,16.32
2018-12-06T00:09:49.618Z,16.53
2018-12-06T00:14:56.006Z,14.47
2018-12-06T00:19:58.500Z,16.70
2018-12-06T00:25:00.954Z,15.13
2018-12-06T00:30:15.463Z,14.83
2018-12-06T00:35:18.158Z,13.55
2018-12-06T00:40:21.203Z,15.43
2018-12-06T00:45:23.672Z,15.43
2018-12-06T00:50:26.475Z,14.13
2018-12-06T00:55:28.967Z,17.73
2018-12-06T01:00:31.649Z,15.43
2018-12-06T01:05:34.605Z,14.13
2018-12-06T01:10:37.075Z,15.30
2018-12-06T01:15:39.638Z,15.73
2018-12-06T01:20:42.302Z,15.10
2018-12-06T01:25:44.769Z,17.80
2018-12-06T01:30:47.322Z,14.85
2018-12-06T01:35:49.811Z,18.67
2018-12-06T01:40:52.525Z,16.67
2018-12-06T01:45:55.006Z,17.97
2018-12-06T01:50:57.750Z,19.42
2018-12-06T01:56:00.511Z,18.60
2018-12-06T02:01:03.003Z,21.27
2018-12-06T02:06:05.587Z,19.77
2018-12-06T02:11:08.081Z,20.97
2018-12-06T02:16:10.578Z,20.83
2018-12-06T02:21:13.053Z,21.57
2018-12-06T02:26:15.661Z,20.27
2018-12-06T02:31:18.126Z,21.50
2018-12-06T02:36:20.870Z,20.57
2018-12-06T02:41:24.213Z,19.73
2018-12-06T02:46:26.753Z,20.60
2018-12-06T02:51:29.250Z,18.47
2018-12-06T02:56:31.857Z,21.95
2018-12-06T03:01:34.406Z,20.60
2018-12-06T03:06:36.858Z,21.57
2018-12-06T03:11:39.335Z,21.10
2018-12-06T03:16:41.935Z,20.23
2018-12-06T03:21:44.530Z,23.70
2018-12-06T03:26:47.729Z,24.00
2018-12-06T03:31:50.758Z,20.72
2018-12-06T03:36:53.236Z,22.60
2018-12-06T03:41:55.727Z,23.47
2018-12-06T03:46:58.220Z,24.05
2018-12-06T03:52:00.821Z,28.95
2018-12-06T03:57:03.297Z,28.80
2018-12-06T04:02:05.994Z,30.57
2018-12-06T04:07:09.314Z,29.55
2018-12-06T04:12:11.813Z,33.13
2018-12-06T04:17:15.133Z,33.83
2018-12-06T04:22:17.628Z,33.87
2018-12-06T04:27:20.118Z,36.15
2018-12-06T04:32:22.738Z,36.23
2018-12-06T04:37:25.318Z,35.60
2018-12-06T04:42:27.811Z,38.83
2018-12-06T04:47:30.298Z,35.15
2018-12-06T04:52:32.780Z,40.33
2018-12-06T04:57:35.270Z,42.10
2018-12-06T05:02:37.763Z,43.77
2018-12-06T05:07:40.262Z,43.92
2018-12-06T05:12:42.879Z,42.78
2018-12-06T05:17:45.461Z,48.68
2018-12-06T05:22:48.365Z,47.50
2018-12-06T05:27:50.858Z,46.40
2018-12-06T05:32:53.356Z,70.67
2018-12-06T05:37:56.665Z,46.70
2018-12-06T05:42:59.154Z,55.80
2018-12-06T05:48:01.642Z,53.20
2018-12-06T05:53:04.129Z,58.10
2018-12-06T05:58:07.043Z,42.13
2018-12-06T06:03:09.651Z,41.90
2018-12-06T06:08:12.134Z,41.63
2018-12-06T06:13:15.028Z,41.53
2018-12-06T06:18:17.825Z,41.57
2018-12-06T06:23:20.317Z,39.80
2018-12-06T06:28:22.815Z,40.03
2018-12-06T06:33:25.294Z,41.80
2018-12-06T06:38:27.811Z,37.53
2018-12-06T06:43:30.501Z,33.75
2018-12-06T06:48:33.027Z,31.13
2018-12-06T06:53:35.499Z,33.13
2018-12-06T06:58:38.442Z,33.20
2018-12-06T07:03:40.977Z,34.03
2018-12-06T07:08:43.473Z,36.07
2018-12-06T07:13:45.942Z,40.87
2018-12-06T07:18:48.769Z,40.48
2018-12-06T07:23:51.670Z,43.40
2018-12-06T07:28:54.138Z,45.60
2018-12-06T07:33:56.611Z,48.60
2018-12-06T07:38:59.150Z,46.83
2018-12-06T07:44:02.366Z,50.63
2018-12-06T07:49:04.954Z,44.27
2018-12-06T07:54:07.561Z,41.17
2018-12-06T07:59:10.150Z,44.60
2018-12-06T08:04:12.642Z,45.40
2018-12-06T08:09:15.101Z,46.48
2018-12-06T08:14:17.637Z,48.47
2018-12-06T08:19:20.166Z,55.98
2018-12-06T08:24:22.716Z,60.77
2018-12-06T08:29:25.209Z,59.00
2018-12-06T08:34:27.703Z,66.60
2018-12-06T08:39:30.218Z,71.17
2018-12-06T08:44:33.209Z,68.17
2018-12-06T08:49:35.694Z,71.93
2018-12-06T08:54:38.185Z,64.10
2018-12-06T08:59:40.686Z,67.23
2018-12-06T09:04:43.178Z,71.07
2018-12-06T09:09:45.710Z,56.57
2018-12-06T09:14:48.266Z,53.23
2018-12-06T09:19:50.750Z,45.03
2018-12-06T09:24:53.263Z,50.78
2018-12-06T09:29:55.770Z,49.93
2018-12-06T09:34:58.275Z,49.05
2018-12-06T09:40:00.741Z,53.57
2018-12-06T09:45:03.946Z,53.90
2018-12-06T09:50:06.585Z,55.53
2018-12-06T09:55:09.127Z,60.98
2018-12-06T10:00:13.902Z,64.40
2018-12-06T10:05:16.370Z,65.60
2018-12-06T10:10:18.974Z,61.70
2018-12-06T10:15:21.567Z,63.35
2018-12-06T10:20:24.137Z,57.93
2018-12-06T10:25:26.669Z,60.93
2018-12-06T10:30:29.136Z,62.62
2018-12-06T10:35:32.363Z,62.30
2018-12-06T10:40:35.280Z,60.12
2018-12-06T10:45:37.837Z,64.07
2018-12-06T10:50:40.346Z,63.75
2018-12-06T10:55:42.992Z,60.63
2018-12-06T11:00:57.165Z,54.25
2018-12-06T11:05:55.706Z,62.77
2018-12-06T11:10:58.207Z,53.58
2018-12-06T11:16:00.686Z,56.13
2018-12-06T11:21:03.195Z,51.15
2018-12-06T11:26:05.775Z,53.87
2018-12-06T11:31:08.278Z,54.85
2018-12-06T11:36:10.748Z,50.70
2018-12-06T11:41:13.273Z,46.37
2018-12-06T11:46:15.958Z,45.30
2018-12-06T11:51:18.446Z,34.63
2018-12-06T11:56:20.945Z,33.30
2018-12-06T12:01:24.058Z,30.87
2018-12-06T12:06:26.549Z,30.33
2018-12-06T12:11:29.447Z,27.00
2018-12-06T12:16:31.944Z,24.97
2018-12-06T12:21:34.533Z,27.40
2018-12-06T12:26:37.033Z,23.85
2018-12-06T12:31:39.574Z,22.77
2018-12-06T12:36:42.035Z,20.77
2018-12-06T12:41:46.765Z,21.53
2018-12-06T12:46:49.306Z,20.02
2018-12-06T12:51:51.808Z,19.27
2018-12-06T12:56:54.282Z,17.67
2018-12-06T13:01:56.754Z,17.00
2018-12-06T13:07:07.164Z,17.82
2018-12-06T13:12:09.670Z,18.23
2018-12-06T13:17:12.213Z,18.00
2018-12-06T13:22:14.722Z,18.50
2018-12-06T13:27:17.191Z,22.82
2018-12-06T13:32:19.684Z,21.70
2018-12-06T13:37:22.279Z,22.35
2018-12-06T13:42:24.875Z,24.60
2018-12-06T13:47:27.367Z,24.55
2018-12-06T13:52:29.871Z,30.48
2018-12-06T13:57:32.367Z,34.57
2018-12-06T14:02:34.853Z,38.13
2018-12-06T14:07:37.553Z,41.47
2018-12-06T14:12:40.045Z,39.18
2018-12-06T14:17:42.525Z,40.43
2018-12-06T14:22:45.071Z,38.88
2018-12-06T14:27:47.622Z,38.30
2018-12-06T14:32:50.161Z,30.25
2018-12-06T14:37:52.618Z,29.23
2018-12-06T14:42:55.134Z,30.77
2018-12-06T14:47:57.609Z,25.95
2018-12-06T14:53:00.182Z,26.57
2018-12-06T14:58:03.458Z,27.10
2018-12-06T15:03:05.986Z,28.70
2018-12-06T15:08:08.466Z,29.13
2018-12-06T15:13:11.083Z,29.47
2018-12-06T15:18:13.602Z,33.97
2018-12-06T15:23:16.157Z,32.38
2018-12-06T15:28:19.476Z,32.77
2018-12-06T15:33:22.078Z,32.48
2018-12-06T15:38:25.030Z,31.17
2018-12-06T15:43:27.574Z,36.63
2018-12-06T15:48:30.550Z,36.67
2018-12-06T15:53:33.050Z,34.38
2018-12-06T15:58:35.750Z,34.20
2018-12-06T16:03:38.251Z,33.33
2018-12-06T16:08:40.736Z,31.87
2018-12-06T16:13:43.193Z,34.15
2018-12-06T16:18:45.667Z,35.87
2018-12-06T16:23:48.158Z,32.13
2018-12-06T16:28:50.639Z,37.00
2018-12-06T16:33:53.111Z,32.35
2018-12-06T16:38:55.763Z,33.03
2018-12-06T16:43:58.365Z,32.23
2018-12-06T16:49:00.894Z,27.53
2018-12-06T16:54:03.393Z,33.40
2018-12-06T16:59:05.888Z,29.60
2018-12-06T17:04:08.511Z,31.07
2018-12-06T17:09:11.052Z,32.23
2018-12-06T17:14:13.515Z,34.53
2018-12-06T17:19:15.979Z,28.70
2018-12-06T17:24:18.465Z,31.40
2018-12-06T17:29:20.922Z,31.73
2018-12-06T17:34:23.422Z,30.23
2018-12-06T17:39:25.869Z,32.27
2018-12-06T17:44:28.358Z,33.67
2018-12-06T17:49:30.829Z,33.63
2018-12-06T17:54:33.526Z,33.53
2018-12-06T17:59:36.061Z,45.33
2018-12-06T18:04:38.613Z,31.60
2018-12-06T18:09:41.486Z,35.20
2018-12-06T18:14:44.013Z,30.17
2018-12-06T18:19:46.715Z,34.07
2018-12-06T18:24:49.289Z,33.23
2018-12-06T18:29:51.786Z,31.40
2018-12-06T18:34:54.786Z,31.50
2018-12-06T18:39:57.552Z,36.40
2018-12-06T18:45:00.810Z,36.77
2018-12-06T18:50:03.859Z,37.50
2018-12-06T18:55:06.368Z,37.73
2018-12-06T19:00:09.276Z,35.17
2018-12-06T19:05:12.201Z,35.90
2018-12-06T19:10:14.701Z,38.50
2018-12-06T19:15:17.201Z,34.00
2018-12-06T19:20:19.687Z,35.43
2018-12-06T19:25:22.386Z,33.73
2018-12-06T19:30:25.389Z,37.83
2018-12-06T19:35:27.853Z,34.25
2018-12-06T19:40:30.345Z,32.93
2018-12-06T19:45:32.878Z,34.73
2018-12-06T19:50:35.362Z,34.18
2018-12-06T19:55:38.012Z,32.35
2018-12-06T20:00:40.525Z,30.43
2018-12-06T20:05:43.002Z,31.82
2018-12-06T20:10:45.470Z,31.93
2018-12-06T20:15:47.949Z,30.08
2018-12-06T20:20:50.502Z,32.17
2018-12-06T20:25:53.045Z,31.52
2018-12-06T20:30:55.532Z,30.07
2018-12-06T20:35:58.015Z,30.65
2018-12-06T20:41:00.547Z,28.80
2018-12-06T20:46:03.083Z,34.33
2018-12-06T20:51:05.573Z,27.73
2018-12-06T20:56:08.136Z,25.13
2018-12-06T21:01:10.901Z,25.10
2018-12-06T21:06:13.849Z,24.47
2018-12-06T21:11:16.406Z,24.20
2018-12-06T21:16:18.890Z,24.30
2018-12-06T21:21:21.369Z,25.17
2018-12-06T21:26:23.818Z,23.77
2018-12-06T21:31:26.333Z,23.60
2018-12-06T21:36:28.822Z,22.95
2018-12-06T21:41:31.322Z,19.37
2018-12-06T21:46:33.794Z,24.23
2018-12-06T21:51:36.270Z,23.03
2018-12-06T21:56:38.759Z,21.37
2018-12-06T22:01:41.518Z,22.32
2018-12-06T22:06:44.211Z,22.42
2018-12-06T22:11:47.434Z,21.57
2018-12-06T22:16:50.022Z,21.75
2018-12-06T22:21:52.722Z,21.87
2018-12-06T22:26:55.318Z,22.52
2018-12-06T22:31:57.894Z,21.07
2018-12-06T22:37:00.403Z,22.47
2018-12-06T22:42:03.314Z,20.13
2018-12-06T22:47:05.794Z,20.02
2018-12-06T22:52:08.393Z,19.75
2018-12-06T22:57:10.895Z,17.75
2018-12-06T23:02:13.411Z,17.95
2018-12-06T23:07:15.985Z,19.62
2018-12-06T23:12:18.677Z,18.67
2018-12-06T23:17:21.162Z,19.37
2018-12-06T23:22:23.757Z,17.70
2018-12-06T23:27:26.270Z,17.00
2018-12-06T23:32:28.739Z,17.83
2018-12-06T23:37:31.546Z,18.98
2018-12-06T23:42:34.549Z,19.30
2018-12-06T23:47:38.374Z,17.85
2018-12-06T23:52:40.871Z,18.63
2018-12-06T23:57:43.566Z,18.67
